Time;durP1;ratioP1;P1;durP2;ratioP2;P2;SDS_P1;SDS_P2;PMS_P1;PMS_P2;Temp;Humidity;BMP_temperature;BMP_pressure;BME280_temperature;BME280_humidity;BME280_pressure;Samples;Min_cycle;Max_cycle;Signal;HPM_P1;HPM_P2
2022/10/13 00:00:41;;;;;;;;;;;;;;;;;;5132271;27;19911;-47
2022/10/13 00:03:07;;;;;;;;;;;;;;;;;;5129949;27;20018;-55
2022/10/13 00:05:33;;;;;;;;;;;;;;;;;;5124464;27;19920;-51
2022/10/13 00:07:59;;;;;;;;;;;;;;;;;;5118643;27;19916;-47
2022/10/13 00:10:25;;;;;;;;;;;;;;;;;;5115370;27;20773;-50
2022/10/13 00:12:51;;;;;;;;;;;;;;;;;;5119847;27;19907;-47
2022/10/13 00:15:16;;;;;;;;;;;;;;;;;;5118903;27;19915;-48
2022/10/13 00:17:42;;;;;;;;;;;;;;;;;;5118537;27;19999;-47
2022/10/13 00:20:08;;;;;;;;;;;;;;;;;;5122674;27;20356;-55
2022/10/13 00:22:34;;;;;;;;;;;;;;;;;;5124936;27;19919;-48
2022/10/13 00:25:00;;;;;;;;;;;;;;;;;;5092539;28;20007;-48
2022/10/13 00:27:26;;;;;;;;;;;;;;;;;;5097198;27;19908;-47
2022/10/13 00:29:52;;;;;;;;;;;;;;;;;;5127894;27;19916;-47
2022/10/13 00:32:17;;;;;;;;;;;;;;;;;;5096860;27;20370;-48
2022/10/13 00:34:43;;;;;;;;;;;;;;;;;;5092329;28;19915;-49
2022/10/13 00:37:09;;;;;;;;;;;;;;;;;;5108914;28;19908;-55
2022/10/13 00:39:35;;;;;;;;;;;;;;;;;;5102848;28;19939;-49
2022/10/13 00:42:01;;;;;;;;;;;;;;;;;;5109127;28;19908;-47
2022/10/13 00:44:27;;;;;;;;;;;;;;;;;;5105789;27;19962;-48
2022/10/13 00:46:53;;;;;;;;;;;;;;;;;;5094475;28;19908;-48
2022/10/13 00:49:18;;;;;;;;;;;;;;;;;;5109281;28;20289;-48
2022/10/13 00:51:44;;;;;;;;;;;;;;;;;;5108481;28;19907;-47
2022/10/13 00:54:10;;;;;;;;;;;;;;;;;;5110402;28;19912;-50
2022/10/13 00:56:36;;;;;;;;;;;;;;;;;;5091607;28;19915;-47
2022/10/13 00:59:02;;;;;;;;;;;;;;;;;;5100936;28;19918;-48
2022/10/13 01:01:28;;;;;;;;;;;;;;;;;;5095740;28;19965;-47
2022/10/13 01:03:54;;;;;;;;;;;;;;;;;;5112534;28;19908;-47
2022/10/13 01:06:19;;;;;;;;;;;;;;;;;;5119551;27;19926;-47
2022/10/13 01:08:45;;;;;;;;;;;;;;;;;;5132892;28;20007;-49
2022/10/13 01:11:11;;;;;;;;;;;;;;;;;;5131575;28;20280;-47
2022/10/13 01:13:37;;;;;;;;;;;;;;;;;;5132758;28;19908;-47
2022/10/13 01:16:03;;;;;;;;;;;;;;;;;;5119014;27;20357;-47
2022/10/13 01:18:29;;;;;;;;;;;;;;;;;;5112165;28;19911;-51
2022/10/13 01:20:55;;;;;;;;;;;;;;;;;;5127415;28;19998;-48
2022/10/13 01:23:21;;;;;;;;;;;;;;;;;;5132288;27;19911;-48
2022/10/13 01:25:46;;;;;;;;;;;;;;;;;;5124835;28;20002;-48
2022/10/13 01:28:12;;;;;;;;;;;;;;;;;;5140059;27;20366;-48
2022/10/13 01:30:38;;;;;;;;;;;;;;;;;;5117909;27;19912;-48
2022/10/13 01:33:04;;;;;;;;;;;;;;;;;;5117388;27;19998;-48
2022/10/13 01:35:31;;;;;;;;;;;;;;;;;;5131536;28;20669;-49
2022/10/13 01:37:57;;;;;;;;;;;;;;;;;;5136140;27;19911;-49
2022/10/13 01:40:22;;;;;;;;;;;;;;;;;;5117661;27;20403;-48
2022/10/13 01:42:48;;;;;;;;;;;;;;;;;;5112252;28;19954;-47
2022/10/13 01:45:14;;;;;;;;;;;;;;;;;;5131296;27;19919;-47
2022/10/13 01:47:40;;;;;;;;;;;;;;;;;;5112197;28;19935;-48
2022/10/13 01:50:06;;;;;;;;;;;;;;;;;;5113651;28;19908;-56
2022/10/13 01:52:32;;;;;;;;;;;;;;;;;;5137522;27;19922;-48
2022/10/13 01:54:58;;;;;;;;;;;;;;;;;;5106194;27;20335;-47
2022/10/13 01:57:23;;;;;;;;;;;;;;;;;;5115808;27;19911;-48
2022/10/13 01:59:49;;;;;;;;;;;;;;;;;;5135828;27;19907;-47
2022/10/13 02:02:15;;;;;;;;;;;;;;;;;;5135235;27;19934;-47
2022/10/13 02:04:41;;;;;;;;;;;;;;;;;;5135972;27;19924;-48
2022/10/13 02:07:07;;;;;;;;;;;;;;;;;;5135480;27;19918;-54
2022/10/13 02:09:33;;;;;;;;;;;;;;;;;;5135244;27;19915;-48
2022/10/13 02:11:59;;;;;;;;;;;;;;;;;;5136250;27;19976;-48
2022/10/13 02:14:25;;;;;;;;;;;;;;;;;;5108274;27;19908;-48
2022/10/13 02:16:51;;;;;;;;;;;;;;;;;;5135658;27;19929;-49
2022/10/13 02:19:17;;;;;;;;;;;;;;;;;;5132870;27;19921;-49
2022/10/13 02:21:42;;;;;;;;;;;;;;;;;;5138443;27;20359;-47
2022/10/13 02:24:08;;;;;;;;;;;;;;;;;;5137969;27;19917;-55
2022/10/13 02:26:34;;;;;;;;;;;;;;;;;;5115037;28;19912;-48
2022/10/13 02:29:00;;;;;;;;;;;;;;;;;;5122153;27;19924;-49
2022/10/13 02:31:26;;;;;;;;;;;;;;;;;;5113798;28;20007;-48
2022/10/13 02:33:52;;;;;;;;;;;;;;;;;;5115490;28;20421;-48
2022/10/13 02:36:18;;;;;;;;;;;;;;;;;;5122241;27;19912;-47
2022/10/13 02:38:43;;;;;;;;;;;;;;;;;;5122674;27;19951;-50
2022/10/13 02:41:09;;;;;;;;;;;;;;;;;;5110256;27;19912;-54
2022/10/13 02:43:37;;;;;;;;;;;;;;;;;;5114923;28;19915;-47
2022/10/13 02:46:03;;;;;;;;;;;;;;;;;;5114238;28;19987;-47
2022/10/13 02:48:29;;;;;;;;;;;;;;;;;;5113705;28;20004;-48
2022/10/13 02:50:55;;;;;;;;;;;;;;;;;;5120498;27;20399;-47
2022/10/13 02:53:21;;;;;;;;;;;;;;;;;;5131833;27;19911;-48
2022/10/13 02:55:47;;;;;;;;;;;;;;;;;;5132336;27;19911;-47
2022/10/13 02:58:13;;;;;;;;;;;;;;;;;;5134442;27;19915;-47
2022/10/13 03:00:39;;;;;;;;;;;;;;;;;;5134290;27;19907;-49
2022/10/13 03:03:04;;;;;;;;;;;;;;;;;;5134351;27;20371;-49
2022/10/13 03:05:30;;;;;;;;;;;;;;;;;;5133566;27;19919;-49
2022/10/13 03:07:56;;;;;;;;;;;;;;;;;;5138432;27;20390;-48
2022/10/13 03:10:22;;;;;;;;;;;;;;;;;;5094638;28;19923;-47
2022/10/13 03:12:48;;;;;;;;;;;;;;;;;;5124826;27;19965;-52
2022/10/13 03:15:14;;;;;;;;;;;;;;;;;;5113099;28;19908;-47
2022/10/13 03:17:40;;;;;;;;;;;;;;;;;;5127810;27;19920;-48
2022/10/13 03:20:06;;;;;;;;;;;;;;;;;;5139851;27;19907;-56
2022/10/13 03:22:32;;;;;;;;;;;;;;;;;;5123836;27;19919;-48
2022/10/13 03:24:58;;;;;;;;;;;;;;;;;;5134977;27;20398;-48
2022/10/13 03:27:23;;;;;;;;;;;;;;;;;;5132820;27;19911;-48
2022/10/13 03:29:49;;;;;;;;;;;;;;;;;;5137775;27;19923;-47
2022/10/13 03:32:15;;;;;;;;;;;;;;;;;;5118872;27;19907;-48
2022/10/13 03:34:41;;;;;;;;;;;;;;;;;;5114091;27;19951;-48
2022/10/13 03:37:07;;;;;;;;;;;;;;;;;;5115250;27;20000;-55
2022/10/13 03:39:33;;;;;;;;;;;;;;;;;;5133548;27;19914;-47
2022/10/13 03:41:59;;;;;;;;;;;;;;;;;;5133979;27;19914;-47
2022/10/13 03:44:25;;;;;;;;;;;;;;;;;;5133498;27;19907;-47
2022/10/13 03:46:51;;;;;;;;;;;;;;;;;;5133412;27;19935;-47
2022/10/13 03:49:17;;;;;;;;;;;;;;;;;;5133142;27;19915;-49
2022/10/13 03:51:43;;;;;;;;;;;;;;;;;;5133650;27;19964;-47
2022/10/13 03:54:09;;;;;;;;;;;;;;;;;;5142734;27;19907;-55
2022/10/13 03:56:36;;;;;;;;;;;;;;;;;;5133146;27;20379;-49
2022/10/13 03:59:03;;;;;;;;;;;;;;;;;;5134145;27;19971;-47
2022/10/13 04:01:29;;;;;;;;;;;;;;;;;;5128688;27;20661;-48
2022/10/13 04:03:55;;;;;;;;;;;;;;;;;;5120894;27;19908;-48
2022/10/13 04:06:21;;;;;;;;;;;;;;;;;;5120684;27;19924;-48
2022/10/13 04:08:47;;;;;;;;;;;;;;;;;;5133664;27;19927;-51
2022/10/13 04:11:13;;;;;;;;;;;;;;;;;;5132060;27;19914;-48
2022/10/13 04:13:39;;;;;;;;;;;;;;;;;;5118495;27;19918;-47
2022/10/13 04:16:05;;;;;;;;;;;;;;;;;;5133358;27;19907;-48
2022/10/13 04:18:31;;;;;;;;;;;;;;;;;;5125485;27;19915;-48
2022/10/13 04:20:57;;;;;;;;;;;;;;;;;;5135824;27;20311;-49
2022/10/13 04:23:23;;;;;;;;;;;;;;;;;;5125520;27;19912;-49
2022/10/13 04:25:48;;;;;;;;;;;;;;;;;;5116425;27;19918;-49
2022/10/13 04:28:14;;;;;;;;;;;;;;;;;;5126951;27;19942;-48
2022/10/13 04:30:40;;;;;;;;;;;;;;;;;;5141529;27;19912;-49
2022/10/13 04:33:06;;;;;;;;;;;;;;;;;;5113072;27;19912;-57
2022/10/13 04:35:32;;;;;;;;;;;;;;;;;;5132841;27;19934;-52
2022/10/13 04:37:58;;;;;;;;;;;;;;;;;;5133909;27;20350;-49
2022/10/13 04:40:24;;;;;;;;;;;;;;;;;;5132242;27;19908;-48
2022/10/13 04:42:50;;;;;;;;;;;;;;;;;;5115149;27;19912;-48
2022/10/13 04:45:16;;;;;;;;;;;;;;;;;;5125961;27;19912;-49
2022/10/13 04:47:42;;;;;;;;;;;;;;;;;;5125236;27;20272;-49
2022/10/13 04:50:08;;;;;;;;;;;;;;;;;;5131342;27;19911;-55
2022/10/13 04:52:33;;;;;;;;;;;;;;;;;;5131263;27;20372;-49
2022/10/13 04:54:59;;;;;;;;;;;;;;;;;;5133230;27;19911;-52
2022/10/13 04:57:25;;;;;;;;;;;;;;;;;;5139462;27;20048;-49
2022/10/13 04:59:51;;;;;;;;;;;;;;;;;;5134783;27;20365;-51
2022/10/13 05:02:17;;;;;;;;;;;;;;;;;;5121271;28;19916;-49
2022/10/13 05:04:43;;;;;;;;;;;;;;;;;;5129111;28;19926;-48
2022/10/13 05:07:09;;;;;;;;;;;;;;;;;;5132282;28;19908;-56
2022/10/13 05:09:35;;;;;;;;;;;;;;;;;;5132997;28;19915;-52
2022/10/13 05:12:01;;;;;;;;;;;;;;;;;;5134740;27;19919;-51
2022/10/13 05:14:26;;;;;;;;;;;;;;;;;;5118967;27;20007;-49
2022/10/13 05:16:52;;;;;;;;;;;;;;;;;;5111853;28;19908;-48
2022/10/13 05:19:19;;;;;;;;;;;;;;;;;;5111541;28;19952;-52
2022/10/13 05:21:45;;;;;;;;;;;;;;;;;;5142139;27;19916;-52
2022/10/13 05:24:12;;;;;;;;;;;;;;;;;;5134468;27;19908;-54
2022/10/13 05:26:38;;;;;;;;;;;;;;;;;;5143047;27;19960;-49
2022/10/13 05:29:04;;;;;;;;;;;;;;;;;;5119874;27;20006;-48
2022/10/13 05:31:30;;;;;;;;;;;;;;;;;;5114760;28;19908;-50
2022/10/13 05:33:55;;;;;;;;;;;;;;;;;;5116466;28;19908;-52
2022/10/13 05:36:21;;;;;;;;;;;;;;;;;;5127614;27;19966;-48
2022/10/13 05:38:47;;;;;;;;;;;;;;;;;;5139005;27;20249;-48
2022/10/13 05:41:13;;;;;;;;;;;;;;;;;;5107789;27;19919;-53
2022/10/13 05:43:39;;;;;;;;;;;;;;;;;;5143239;27;19908;-48
2022/10/13 05:46:05;;;;;;;;;;;;;;;;;;5130651;27;20002;-47
2022/10/13 05:48:31;;;;;;;;;;;;;;;;;;5114839;28;19919;-47
2022/10/13 05:50:57;;;;;;;;;;;;;;;;;;5119918;27;20228;-49
2022/10/13 05:53:23;;;;;;;;;;;;;;;;;;5117902;27;19934;-48
2022/10/13 05:55:49;;;;;;;;;;;;;;;;;;5136458;27;19919;-48
2022/10/13 05:58:15;;;;;;;;;;;;;;;;;;5124135;27;19915;-47
2022/10/13 06:00:41;;;;;;;;;;;;;;;;;;5130426;27;19916;-51
2022/10/13 06:03:07;;;;;;;;;;;;;;;;;;5135193;27;19964;-55
2022/10/13 06:05:32;;;;;;;;;;;;;;;;;;5134653;27;20284;-47
2022/10/13 06:07:58;;;;;;;;;;;;;;;;;;5135507;27;20014;-51
2022/10/13 06:10:24;;;;;;;;;;;;;;;;;;5116441;27;19915;-47
2022/10/13 06:12:50;;;;;;;;;;;;;;;;;;5141651;27;19934;-47
2022/10/13 06:15:16;;;;;;;;;;;;;;;;;;5123711;27;20364;-50
2022/10/13 06:17:42;;;;;;;;;;;;;;;;;;5131684;27;19915;-47
2022/10/13 06:20:08;;;;;;;;;;;;;;;;;;5129568;27;20334;-56
2022/10/13 06:22:34;;;;;;;;;;;;;;;;;;5132928;27;19908;-51
2022/10/13 06:25:00;;;;;;;;;;;;;;;;;;5126654;27;19911;-49
2022/10/13 06:27:26;;;;;;;;;;;;;;;;;;5126151;27;19916;-48
2022/10/13 06:29:51;;;;;;;;;;;;;;;;;;5132914;27;19996;-48
2022/10/13 06:32:17;;;;;;;;;;;;;;;;;;5124090;27;19919;-48
2022/10/13 06:34:43;;;;;;;;;;;;;;;;;;5116747;27;19994;-51
2022/10/13 06:37:09;;;;;;;;;;;;;;;;;;5123072;27;19911;-58
2022/10/13 06:39:35;;;;;;;;;;;;;;;;;;5123179;27;20285;-49
2022/10/13 06:42:04;;;;;;;;;;;;;;;;;;5132667;27;19959;-49
2022/10/13 06:44:30;;;;;;;;;;;;;;;;;;5129175;27;19908;-48
2022/10/13 06:46:56;;;;;;;;;;;;;;;;;;5130706;27;19919;-47
2022/10/13 06:49:22;;;;;;;;;;;;;;;;;;5134041;27;20283;-48
2022/10/13 06:51:48;;;;;;;;;;;;;;;;;;5123520;27;19991;-47
2022/10/13 06:54:14;;;;;;;;;;;;;;;;;;5134281;27;20384;-48
2022/10/13 06:56:40;;;;;;;;;;;;;;;;;;5130079;27;20002;-53
2022/10/13 06:59:06;;;;;;;;;;;;;;;;;;5129543;27;19915;-55
2022/10/13 07:01:32;;;;;;;;;;;;;;;;;;5115080;27;19908;-47
2022/10/13 07:03:58;;;;;;;;;;;;;;;;;;5123473;27;19939;-49
2022/10/13 07:06:24;;;;;;;;;;;;;;;;;;5109276;27;20004;-48
2022/10/13 07:08:49;;;;;;;;;;;;;;;;;;5133454;27;19937;-48
2022/10/13 07:11:17;;;;;;;;;;;;;;;;;;5121579;27;20324;-48
2022/10/13 07:13:43;;;;;;;;;;;;;;;;;;5132745;27;20279;-51
2022/10/13 07:16:09;;;;;;;;;;;;;;;;;;5134258;27;19919;-57
2022/10/13 07:18:35;;;;;;;;;;;;;;;;;;5131804;27;19911;-47
2022/10/13 07:21:00;;;;;;;;;;;;;;;;;;5134024;27;20400;-52
2022/10/13 07:23:26;;;;;;;;;;;;;;;;;;5131142;27;19998;-48
2022/10/13 07:25:53;;;;;;;;;;;;;;;;;;5132071;27;19918;-48
2022/10/13 07:28:19;;;;;;;;;;;;;;;;;;5135483;27;19915;-48
2022/10/13 07:30:45;;;;;;;;;;;;;;;;;;5132317;27;20320;-47
2022/10/13 07:33:11;;;;;;;;;;;;;;;;;;5130156;27;19918;-48
2022/10/13 07:35:37;;;;;;;;;;;;;;;;;;5131319;27;19961;-48
2022/10/13 07:38:03;;;;;;;;;;;;;;;;;;5126591;27;19911;-50
2022/10/13 07:40:29;;;;;;;;;;;;;;;;;;5129764;27;19908;-50
2022/10/13 07:42:55;;;;;;;;;;;;;;;;;;5131202;27;19927;-52
2022/10/13 07:45:21;;;;;;;;;;;;;;;;;;5135195;27;19911;-47
2022/10/13 07:47:46;;;;;;;;;;;;;;;;;;5124659;27;19912;-48
2022/10/13 07:50:12;;;;;;;;;;;;;;;;;;5127067;27;20372;-48
2022/10/13 07:52:38;;;;;;;;;;;;;;;;;;5133369;27;20006;-48
2022/10/13 07:55:04;;;;;;;;;;;;;;;;;;5133969;27;19918;-48
2022/10/13 07:57:30;;;;;;;;;;;;;;;;;;5132869;27;19968;-49
2022/10/13 07:59:56;;;;;;;;;;;;;;;;;;5123211;27;19995;-51
2022/10/13 08:02:22;;;;;;;;;;;;;;;;;;5123597;27;20394;-48
2022/10/13 08:04:48;;;;;;;;;;;;;;;;;;5124205;27;20394;-48
2022/10/13 08:07:15;;;;;;;;;;;;;;;;;;5091394;28;19914;-51
2022/10/13 08:09:41;;;;;;;;;;;;;;;;;;5105223;27;20136;-48
2022/10/13 08:12:07;;;;;;;;;;;;;;;;;;5115775;27;19911;-54
2022/10/13 08:14:32;;;;;;;;;;;;;;;;;;5104109;27;19940;-50
2022/10/13 08:17:00;;;;;;;;;;;;;;;;;;5120083;27;19955;-47
2022/10/13 08:19:27;;;;;;;;;;;;;;;;;;5111150;28;19907;-51
2022/10/13 08:21:53;;;;;;;;;;;;;;;;;;5111634;27;19919;-48
2022/10/13 08:24:18;;;;;;;;;;;;;;;;;;5116854;27;19912;-49
2022/10/13 08:26:45;;;;;;;;;;;;;;;;;;5105833;27;19915;-47
2022/10/13 08:29:11;;;;;;;;;;;;;;;;;;5102635;27;20392;-52
2022/10/13 08:31:37;;;;;;;;;;;;;;;;;;5112318;27;19915;-47
2022/10/13 08:34:03;;;;;;;;;;;;;;;;;;5111230;28;20361;-49
2022/10/13 08:36:29;;;;;;;;;;;;;;;;;;5109203;28;19985;-49
2022/10/13 08:38:55;;;;;;;;;;;;;;;;;;5101142;28;19919;-48
2022/10/13 08:41:21;;;;;;;;;;;;;;;;;;5107717;28;19916;-47
2022/10/13 08:43:46;;;;;;;;;;;;;;;;;;5110327;28;19915;-47
2022/10/13 08:46:12;;;;;;;;;;;;;;;;;;5100722;28;20050;-47
2022/10/13 08:48:38;;;;;;;;;;;;;;;;;;5112476;28;19916;-52
2022/10/13 08:51:04;;;;;;;;;;;;;;;;;;5103542;28;19908;-49
2022/10/13 08:53:30;;;;;;;;;;;;;;;;;;5110246;28;19908;-48
2022/10/13 08:55:56;;;;;;;;;;;;;;;;;;5093123;28;19908;-49
2022/10/13 08:58:22;;;;;;;;;;;;;;;;;;5104897;28;20014;-49
2022/10/13 09:00:47;;;;;;;;;;;;;;;;;;5111346;28;20326;-47
2022/10/13 09:03:13;;;;;;;;;;;;;;;;;;5103021;28;19915;-48
2022/10/13 09:05:39;;;;;;;;;;;;;;;;;;5123654;27;20005;-49
2022/10/13 09:08:05;;;;;;;;;;;;;;;;;;5151317;27;19916;-48
2022/10/13 09:10:31;;;;;;;;;;;;;;;;;;5135780;27;20080;-48
2022/10/13 09:12:59;;;;;;;;;;;;;;;;;;5132891;27;19994;-48
2022/10/13 09:15:25;;;;;;;;;;;;;;;;;;5122155;27;19912;-49
2022/10/13 09:17:51;;;;;;;;;;;;;;;;;;5116872;28;20245;-51
2022/10/13 09:20:17;;;;;;;;;;;;;;;;;;5128459;27;19907;-47
2022/10/13 09:22:45;;;;;;;;;;;;;;;;;;5135026;27;19914;-47
2022/10/13 09:25:11;;;;;;;;;;;;;;;;;;5142856;27;19999;-55
2022/10/13 09:27:37;;;;;;;;;;;;;;;;;;5144717;27;19951;-48
2022/10/13 09:30:03;;;;;;;;;;;;;;;;;;5139241;27;19940;-52
2022/10/13 09:32:29;;;;;;;;;;;;;;;;;;5128093;27;19911;-48
2022/10/13 09:34:55;;;;;;;;;;;;;;;;;;5128675;27;19907;-47
2022/10/13 09:37:21;;;;;;;;;;;;;;;;;;5135320;27;19930;-47
2022/10/13 09:39:46;;;;;;;;;;;;;;;;;;5136800;27;19969;-49
2022/10/13 09:42:12;;;;;;;;;;;;;;;;;;5135378;27;19911;-47
2022/10/13 09:44:38;;;;;;;;;;;;;;;;;;5136850;27;20374;-47
2022/10/13 09:47:04;;;;;;;;;;;;;;;;;;5123530;27;19912;-49
2022/10/13 09:49:30;;;;;;;;;;;;;;;;;;5135240;27;19926;-47
2022/10/13 09:51:56;;;;;;;;;;;;;;;;;;5133909;27;19907;-48
2022/10/13 09:54:22;;;;;;;;;;;;;;;;;;5124993;27;19999;-48
2022/10/13 09:56:48;;;;;;;;;;;;;;;;;;5137843;27;19908;-54
2022/10/13 09:59:14;;;;;;;;;;;;;;;;;;5130460;27;19912;-55
2022/10/13 10:01:39;;;;;;;;;;;;;;;;;;5132073;27;19907;-55
2022/10/13 10:04:05;;;;;;;;;;;;;;;;;;5124517;27;20045;-55
2022/10/13 10:06:31;;;;;;;;;;;;;;;;;;5099208;28;19923;-53
2022/10/13 10:08:57;;;;;;;;;;;;;;;;;;5095210;28;20292;-56
2022/10/13 10:11:23;;;;;;;;;;;;;;;;;;5092885;28;20405;-55
2022/10/13 10:13:51;;;;;;;;;;;;;;;;;;5102803;28;19959;-55
2022/10/13 10:16:17;;;;;;;;;;;;;;;;;;5113500;28;19908;-55
2022/10/13 10:18:43;;;;;;;;;;;;;;;;;;5097046;28;19912;-56
2022/10/13 10:21:09;;;;;;;;;;;;;;;;;;5086069;28;19908;-57
2022/10/13 10:23:35;;;;;;;;;;;;;;;;;;5112724;28;19908;-56
2022/10/13 10:26:01;;;;;;;;;;;;;;;;;;5112479;28;19922;-55
2022/10/13 10:28:27;;;;;;;;;;;;;;;;;;5108898;28;19916;-55
2022/10/13 10:30:53;;;;;;;;;;;;;;;;;;5108846;28;19959;-52
2022/10/13 10:33:19;;;;;;;;;;;;;;;;;;5115648;27;19916;-51
2022/10/13 10:35:44;;;;;;;;;;;;;;;;;;5115888;27;19957;-54
2022/10/13 10:38:10;;;;;;;;;;;;;;;;;;5110876;28;19936;-56
2022/10/13 10:40:36;;;;;;;;;;;;;;;;;;5103889;28;19908;-54
2022/10/13 10:43:02;;;;;;;;;;;;;;;;;;5114790;28;19939;-49
2022/10/13 10:45:28;;;;;;;;;;;;;;;;;;5113611;28;19907;-57
2022/10/13 10:47:54;;;;;;;;;;;;;;;;;;5114838;28;19908;-56
2022/10/13 10:50:20;;;;;;;;;;;;;;;;;;5104274;28;19908;-53
2022/10/13 10:52:46;;;;;;;;;;;;;;;;;;5106425;28;19912;-50
2022/10/13 10:55:12;;;;;;;;;;;;;;;;;;5105038;28;20011;-57
2022/10/13 10:57:38;;;;;;;;;;;;;;;;;;5114531;28;19919;-52
2022/10/13 11:00:04;;;;;;;;;;;;;;;;;;5097230;28;20268;-54
2022/10/13 11:02:30;;;;;;;;;;;;;;;;;;5113574;27;19912;-55
2022/10/13 11:04:56;;;;;;;;;;;;;;;;;;5117560;27;19919;-54
2022/10/13 11:07:22;;;;;;;;;;;;;;;;;;5132388;27;19917;-56
2022/10/13 11:09:48;;;;;;;;;;;;;;;;;;5134513;27;19927;-51
2022/10/13 11:12:14;;;;;;;;;;;;;;;;;;5129218;27;19915;-56
2022/10/13 11:14:40;;;;;;;;;;;;;;;;;;5134260;27;19911;-55
2022/10/13 11:17:06;;;;;;;;;;;;;;;;;;5132955;27;20363;-54
2022/10/13 11:19:31;;;;;;;;;;;;;;;;;;5121464;27;19908;-56
2022/10/13 11:21:57;;;;;;;;;;;;;;;;;;5114512;27;20427;-55
2022/10/13 11:24:23;;;;;;;;;;;;;;;;;;5121962;27;19912;-55
2022/10/13 11:26:49;;;;;;;;;;;;;;;;;;5112977;28;19907;-56
2022/10/13 11:29:15;;;;;;;;;;;;;;;;;;5113081;27;19920;-55
2022/10/13 11:31:41;;;;;;;;;;;;;;;;;;5133027;27;19990;-55
2022/10/13 11:34:07;;;;;;;;;;;;;;;;;;5133094;27;19913;-57
2022/10/13 11:36:33;;;;;;;;;;;;;;;;;;5113579;27;19915;-56
2022/10/13 11:38:58;;;;;;;;;;;;;;;;;;5120851;27;20388;-56
2022/10/13 11:41:25;;;;;;;;;;;;;;;;;;5128989;27;19912;-56
2022/10/13 11:43:51;;;;;;;;;;;;;;;;;;5133939;27;19922;-55
2022/10/13 11:46:17;;;;;;;;;;;;;;;;;;5125846;27;20271;-54
2022/10/13 11:48:43;;;;;;;;;;;;;;;;;;5134083;27;20076;-56
2022/10/13 11:51:09;;;;;;;;;;;;;;;;;;5119637;27;20372;-57
2022/10/13 11:53:35;;;;;;;;;;;;;;;;;;5118634;27;20417;-56
2022/10/13 11:56:01;;;;;;;;;;;;;;;;;;5113508;27;19918;-55
2022/10/13 11:58:27;;;;;;;;;;;;;;;;;;5120255;27;19919;-56
2022/10/13 12:00:52;;;;;;;;;;;;;;;;;;5128476;27;19908;-56
2022/10/13 12:03:19;;;;;;;;;;;;;;;;;;5094000;28;19912;-56
2022/10/13 12:05:44;;;;;;;;;;;;;;;;;;5124615;27;19919;-57
2022/10/13 12:08:12;;;;;;;;;;;;;;;;;;5124839;27;20355;-56
2022/10/13 12:10:38;;;;;;;;;;;;;;;;;;5142287;27;19938;-55
2022/10/13 12:13:04;;;;;;;;;;;;;;;;;;5133699;27;19911;-56
2022/10/13 12:15:30;;;;;;;;;;;;;;;;;;5122021;27;19915;-55
2022/10/13 12:17:56;;;;;;;;;;;;;;;;;;5131961;27;20647;-56
2022/10/13 12:20:22;;;;;;;;;;;;;;;;;;5119073;27;20356;-56
2022/10/13 12:22:47;;;;;;;;;;;;;;;;;;5129615;27;20002;-58
2022/10/13 12:25:13;;;;;;;;;;;;;;;;;;5133450;27;19941;-57
2022/10/13 12:27:39;;;;;;;;;;;;;;;;;;5131632;27;19914;-55
2022/10/13 12:30:05;;;;;;;;;;;;;;;;;;5127451;27;20261;-56
2022/10/13 12:32:32;;;;;;;;;;;;;;;;;;5124737;27;19927;-57
2022/10/13 12:34:58;;;;;;;;;;;;;;;;;;5127963;27;19914;-56
2022/10/13 12:37:24;;;;;;;;;;;;;;;;;;5126151;27;19998;-55
2022/10/13 12:39:50;;;;;;;;;;;;;;;;;;5133408;27;19914;-56
2022/10/13 12:42:16;;;;;;;;;;;;;;;;;;5123784;27;19907;-56
2022/10/13 12:44:42;;;;;;;;;;;;;;;;;;5127279;27;19946;-56
2022/10/13 12:47:08;;;;;;;;;;;;;;;;;;5129942;27;19918;-56
2022/10/13 12:49:34;;;;;;;;;;;;;;;;;;5131726;27;19919;-56
2022/10/13 12:52:00;;;;;;;;;;;;;;;;;;5135262;27;19938;-56
2022/10/13 12:54:25;;;;;;;;;;;;;;;;;;5119270;27;20253;-57
2022/10/13 12:56:51;;;;;;;;;;;;;;;;;;5132218;27;19915;-55
2022/10/13 12:59:17;;;;;;;;;;;;;;;;;;5131763;27;19911;-56
2022/10/13 13:01:43;;;;;;;;;;;;;;;;;;5123750;27;20284;-57
2022/10/13 13:04:09;;;;;;;;;;;;;;;;;;5131930;27;19918;-57
2022/10/13 13:06:35;;;;;;;;;;;;;;;;;;5124700;28;19907;-56
2022/10/13 13:09:01;;;;;;;;;;;;;;;;;;5114499;27;19959;-56
2022/10/13 13:11:27;;;;;;;;;;;;;;;;;;5124252;27;20729;-58
2022/10/13 13:13:52;;;;;;;;;;;;;;;;;;5126080;27;19911;-54
2022/10/13 13:16:18;;;;;;;;;;;;;;;;;;5122907;27;19951;-55
2022/10/13 13:18:44;;;;;;;;;;;;;;;;;;5114156;28;19980;-56
2022/10/13 13:21:10;;;;;;;;;;;;;;;;;;5134118;27;20325;-57
2022/10/13 13:23:36;;;;;;;;;;;;;;;;;;5112017;28;20280;-56
2022/10/13 13:26:02;;;;;;;;;;;;;;;;;;5111895;28;20002;-56
2022/10/13 13:28:28;;;;;;;;;;;;;;;;;;5125383;28;19915;-55
2022/10/13 13:30:54;;;;;;;;;;;;;;;;;;5130592;27;19908;-56
2022/10/13 13:33:20;;;;;;;;;;;;;;;;;;5139459;27;20054;-56
2022/10/13 13:35:47;;;;;;;;;;;;;;;;;;5112951;28;19908;-54
2022/10/13 13:38:13;;;;;;;;;;;;;;;;;;5124002;28;19908;-55
2022/10/13 13:40:39;;;;;;;;;;;;;;;;;;5127232;28;19914;-56
2022/10/13 13:43:05;;;;;;;;;;;;;;;;;;5132441;28;19911;-56
2022/10/13 13:45:31;;;;;;;;;;;;;;;;;;5122426;27;19912;-55
2022/10/13 13:47:57;;;;;;;;;;;;;;;;;;5136375;27;20360;-56
2022/10/13 13:50:22;;;;;;;;;;;;;;;;;;5116817;27;19951;-55
2022/10/13 13:52:48;;;;;;;;;;;;;;;;;;5133200;27;19912;-56
2022/10/13 13:55:14;;;;;;;;;;;;;;;;;;5135085;27;19908;-56
2022/10/13 13:57:40;;;;;;;;;;;;;;;;;;5124513;27;19908;-56
2022/10/13 14:00:06;;;;;;;;;;;;;;;;;;5134415;27;20279;-56
2022/10/13 14:02:32;;;;;;;;;;;;;;;;;;5131937;27;19912;-58
2022/10/13 14:04:58;;;;;;;;;;;;;;;;;;5135446;27;19928;-57
2022/10/13 14:07:24;;;;;;;;;;;;;;;;;;5134386;27;19961;-56
2022/10/13 14:09:49;;;;;;;;;;;;;;;;;;5134389;27;19919;-56
2022/10/13 14:12:15;;;;;;;;;;;;;;;;;;5134797;27;19990;-56
2022/10/13 14:14:41;;;;;;;;;;;;;;;;;;5136006;27;20268;-56
2022/10/13 14:17:07;;;;;;;;;;;;;;;;;;5135061;27;19908;-58
2022/10/13 14:19:33;;;;;;;;;;;;;;;;;;5134145;27;20280;-57
2022/10/13 14:22:00;;;;;;;;;;;;;;;;;;5122825;27;19958;-57
2022/10/13 14:24:26;;;;;;;;;;;;;;;;;;5114418;28;19912;-57
2022/10/13 14:26:52;;;;;;;;;;;;;;;;;;5114563;27;19916;-57
2022/10/13 14:29:17;;;;;;;;;;;;;;;;;;5133118;27;19973;-58
2022/10/13 14:31:43;;;;;;;;;;;;;;;;;;5135259;27;20378;-57
2022/10/13 14:34:09;;;;;;;;;;;;;;;;;;5120254;27;19908;-58
2022/10/13 14:36:35;;;;;;;;;;;;;;;;;;5119884;27;19966;-57
2022/10/13 14:39:01;;;;;;;;;;;;;;;;;;5134132;27;19911;-57
2022/10/13 14:41:27;;;;;;;;;;;;;;;;;;5134389;27;20409;-56
2022/10/13 14:43:53;;;;;;;;;;;;;;;;;;5135489;27;19914;-57
2022/10/13 14:46:19;;;;;;;;;;;;;;;;;;5133139;27;19998;-58
2022/10/13 14:48:45;;;;;;;;;;;;;;;;;;5128932;27;19998;-57
2022/10/13 14:51:11;;;;;;;;;;;;;;;;;;5125606;27;19911;-58
2022/10/13 14:53:36;;;;;;;;;;;;;;;;;;5132308;27;19908;-56
2022/10/13 14:56:02;;;;;;;;;;;;;;;;;;5127446;27;20404;-57
2022/10/13 14:58:28;;;;;;;;;;;;;;;;;;5131326;27;19903;-55
2022/10/13 15:00:54;;;;;;;;;;;;;;;;;;5133183;27;20002;-56
2022/10/13 15:03:20;;;;;;;;;;;;;;;;;;5120274;27;19964;-56
2022/10/13 15:05:46;;;;;;;;;;;;;;;;;;5113578;27;19923;-54
2022/10/13 15:08:12;;;;;;;;;;;;;;;;;;5131851;27;19935;-57
2022/10/13 15:10:38;;;;;;;;;;;;;;;;;;5129719;27;20040;-56
2022/10/13 15:13:03;;;;;;;;;;;;;;;;;;5134635;27;20263;-57
2022/10/13 15:15:29;;;;;;;;;;;;;;;;;;5128867;27;19915;-56
2022/10/13 15:17:55;;;;;;;;;;;;;;;;;;5140577;27;19954;-56
2022/10/13 15:20:21;;;;;;;;;;;;;;;;;;5133376;27;19911;-55
2022/10/13 15:22:47;;;;;;;;;;;;;;;;;;5115699;27;19912;-55
2022/10/13 15:25:13;;;;;;;;;;;;;;;;;;5112636;28;20458;-55
2022/10/13 15:27:39;;;;;;;;;;;;;;;;;;5124293;27;20326;-55
2022/10/13 15:30:05;;;;;;;;;;;;;;;;;;5114167;27;19915;-56
2022/10/13 15:32:31;;;;;;;;;;;;;;;;;;5127439;27;19972;-55
2022/10/13 15:34:57;;;;;;;;;;;;;;;;;;5117595;27;19935;-56
2022/10/13 15:37:22;;;;;;;;;;;;;;;;;;5130970;27;19962;-55
2022/10/13 15:39:48;;;;;;;;;;;;;;;;;;5134323;27;19908;-53
2022/10/13 15:42:14;;;;;;;;;;;;;;;;;;5126111;27;19915;-57
2022/10/13 15:44:40;;;;;;;;;;;;;;;;;;5129717;27;19912;-57
2022/10/13 15:47:06;;;;;;;;;;;;;;;;;;5123474;27;20057;-55
2022/10/13 15:49:32;;;;;;;;;;;;;;;;;;5122543;27;20419;-55
2022/10/13 15:51:58;;;;;;;;;;;;;;;;;;5125702;27;19912;-56
2022/10/13 15:54:24;;;;;;;;;;;;;;;;;;5130029;27;19911;-54
2022/10/13 15:56:50;;;;;;;;;;;;;;;;;;5126874;27;19942;-54
2022/10/13 15:59:15;;;;;;;;;;;;;;;;;;5119959;27;19907;-56
2022/10/13 16:01:41;;;;;;;;;;;;;;;;;;5130762;27;20023;-55
2022/10/13 16:04:07;;;;;;;;;;;;;;;;;;5132161;27;19933;-56
2022/10/13 16:06:34;;;;;;;;;;;;;;;;;;5120892;27;19911;-55
2022/10/13 16:09:00;;;;;;;;;;;;;;;;;;5121121;27;19922;-55
2022/10/13 16:11:26;;;;;;;;;;;;;;;;;;5117153;27;20427;-54
2022/10/13 16:13:52;;;;;;;;;;;;;;;;;;5123391;27;20364;-55
2022/10/13 16:16:18;;;;;;;;;;;;;;;;;;5109284;27;19947;-56
2022/10/13 16:18:44;;;;;;;;;;;;;;;;;;5118736;27;20357;-57
2022/10/13 16:21:10;;;;;;;;;;;;;;;;;;5117796;27;20374;-57
2022/10/13 16:23:36;;;;;;;;;;;;;;;;;;5113110;28;19995;-55
2022/10/13 16:26:02;;;;;;;;;;;;;;;;;;5112276;27;20003;-55
2022/10/13 16:28:28;;;;;;;;;;;;;;;;;;5106731;27;19955;-52
2022/10/13 16:30:54;;;;;;;;;;;;;;;;;;5092966;28;19916;-55
2022/10/13 16:33:20;;;;;;;;;;;;;;;;;;5104606;28;19916;-55
2022/10/13 16:35:45;;;;;;;;;;;;;;;;;;5101858;27;19977;-55